sensor_id;sensor_type;location;lat;lon;timestamp;pressure;altitude;pressure_sealevel;temperature;humidity
19023;BME280;35226;48.606;8.858;2024-02-21T00:01:22;97258.06;;;3.72;100.00
19023;BME280;35226;48.606;8.858;2024-02-21T00:03:47;97265.59;;;3.79;100.00
19023;BME280;35226;48.606;8.858;2024-02-21T00:06:13;97261.22;;;3.75;100.00
19023;BME280;35226;48.606;8.858;2024-02-21T00:08:38;97261.28;;;3.78;100.00
19023;BME280;35226;48.606;8.858;2024-02-21T00:11:04;97267.94;;;3.81;100.00
19023;BME280;35226;48.606;8.858;2024-02-21T00:13:30;97257.75;;;3.78;100.00
19023;BME280;35226;48.606;8.858;2024-02-21T00:15:55;97262.06;;;3.82;100.00
19023;BME280;35226;48.606;8.858;2024-02-21T00:18:21;97251.97;;;3.86;100.00
19023;BME280;35226;48.606;8.858;2024-02-21T00:20:46;97254.34;;;3.88;100.00
19023;BME280;35226;48.606;8.858;2024-02-21T00:23:12;97246.09;;;3.81;100.00
19023;BME280;35226;48.606;8.858;2024-02-21T00:25:37;97242.94;;;3.82;100.00
19023;BME280;35226;48.606;8.858;2024-02-21T00:28:03;97237.16;;;3.87;100.00
19023;BME280;35226;48.606;8.858;2024-02-21T00:30:28;97233.47;;;3.72;100.00
19023;BME280;35226;48.606;8.858;2024-02-21T00:32:54;97224.53;;;3.72;100.00
19023;BME280;35226;48.606;8.858;2024-02-21T00:35:19;97235.56;;;3.86;100.00
19023;BME280;35226;48.606;8.858;2024-02-21T00:37:45;97237.19;;;3.91;100.00
19023;BME280;35226;48.606;8.858;2024-02-21T00:40:10;97234.34;;;3.80;100.00
19023;BME280;35226;48.606;8.858;2024-02-21T00:42:36;97240.66;;;3.88;100.00
19023;BME280;35226;48.606;8.858;2024-02-21T00:45:01;97234.94;;;3.63;100.00
19023;BME280;35226;48.606;8.858;2024-02-21T00:47:27;97234.88;;;3.52;100.00
19023;BME280;35226;48.606;8.858;2024-02-21T00:49:52;97235.06;;;3.73;100.00
19023;BME280;35226;48.606;8.858;2024-02-21T00:52:18;97236.09;;;3.58;100.00
19023;BME280;35226;48.606;8.858;2024-02-21T00:54:43;97231.66;;;3.47;100.00
19023;BME280;35226;48.606;8.858;2024-02-21T00:57:09;97229.78;;;3.54;100.00
19023;BME280;35226;48.606;8.858;2024-02-21T00:59:34;97227.78;;;3.48;100.00
19023;BME280;35226;48.606;8.858;2024-02-21T01:01:59;97232.22;;;3.63;100.00
19023;BME280;35226;48.606;8.858;2024-02-21T01:04:25;97219.53;;;3.44;100.00
19023;BME280;35226;48.606;8.858;2024-02-21T01:06:50;97219.31;;;3.60;100.00
19023;BME280;35226;48.606;8.858;2024-02-21T01:09:16;97216.59;;;3.60;100.00
19023;BME280;35226;48.606;8.858;2024-02-21T01:11:41;97214.66;;;3.60;100.00
19023;BME280;35226;48.606;8.858;2024-02-21T01:14:06;97206.34;;;3.53;100.00
19023;BME280;35226;48.606;8.858;2024-02-21T01:16:32;97205.19;;;3.54;100.00
19023;BME280;35226;48.606;8.858;2024-02-21T01:18:57;97199.63;;;3.44;100.00
19023;BME280;35226;48.606;8.858;2024-02-21T01:21:23;97201.19;;;3.45;100.00
19023;BME280;35226;48.606;8.858;2024-02-21T01:23:48;97193.34;;;3.40;100.00
19023;BME280;35226;48.606;8.858;2024-02-21T01:26:14;97188.13;;;3.64;100.00
19023;BME280;35226;48.606;8.858;2024-02-21T01:28:41;97186.59;;;3.67;100.00
19023;BME280;35226;48.606;8.858;2024-02-21T01:31:07;97181.50;;;3.65;100.00
19023;BME280;35226;48.606;8.858;2024-02-21T01:33:32;97176.34;;;3.57;100.00
19023;BME280;35226;48.606;8.858;2024-02-21T01:36:01;97175.97;;;3.58;100.00
19023;BME280;35226;48.606;8.858;2024-02-21T01:38:27;97163.91;;;3.59;100.00
19023;BME280;35226;48.606;8.858;2024-02-21T01:40:53;97163.66;;;3.79;100.00
19023;BME280;35226;48.606;8.858;2024-02-21T01:43:19;97159.59;;;3.58;100.00
19023;BME280;35226;48.606;8.858;2024-02-21T01:45:49;97168.25;;;3.67;100.00
19023;BME280;35226;48.606;8.858;2024-02-21T01:48:17;97161.91;;;3.56;100.00
19023;BME280;35226;48.606;8.858;2024-02-21T01:50:43;97159.91;;;3.53;100.00
19023;BME280;35226;48.606;8.858;2024-02-21T01:53:10;97151.84;;;3.67;100.00
19023;BME280;35226;48.606;8.858;2024-02-21T01:55:35;97153.03;;;3.66;100.00
19023;BME280;35226;48.606;8.858;2024-02-21T01:58:01;97148.25;;;3.56;100.00
19023;BME280;35226;48.606;8.858;2024-02-21T02:00:27;97128.31;;;3.52;100.00
19023;BME280;35226;48.606;8.858;2024-02-21T02:02:53;97127.44;;;3.41;100.00
19023;BME280;35226;48.606;8.858;2024-02-21T02:05:20;97116.19;;;3.50;100.00
19023;BME280;35226;48.606;8.858;2024-02-21T02:07:46;97118.16;;;3.53;100.00
19023;BME280;35226;48.606;8.858;2024-02-21T02:10:12;97122.06;;;3.52;100.00
19023;BME280;35226;48.606;8.858;2024-02-21T02:12:38;97115.78;;;3.48;100.00
19023;BME280;35226;48.606;8.858;2024-02-21T02:15:03;97110.03;;;3.63;100.00
19023;BME280;35226;48.606;8.858;2024-02-21T02:17:32;97107.25;;;3.56;100.00
19023;BME280;35226;48.606;8.858;2024-02-21T02:19:58;97100.72;;;3.68;100.00
19023;BME280;35226;48.606;8.858;2024-02-21T02:22:28;97092.84;;;3.59;100.00
19023;BME280;35226;48.606;8.858;2024-02-21T02:24:54;97086.56;;;3.55;100.00
19023;BME280;35226;48.606;8.858;2024-02-21T02:27:19;97089.38;;;3.66;100.00
19023;BME280;35226;48.606;8.858;2024-02-21T02:29:45;97092.91;;;3.66;100.00
19023;BME280;35226;48.606;8.858;2024-02-21T02:32:10;97084.34;;;3.68;100.00
19023;BME280;35226;48.606;8.858;2024-02-21T02:34:36;97086.28;;;3.67;100.00
19023;BME280;35226;48.606;8.858;2024-02-21T02:37:01;97080.44;;;3.72;100.00
19023;BME280;35226;48.606;8.858;2024-02-21T02:39:27;97077.41;;;3.81;100.00
19023;BME280;35226;48.606;8.858;2024-02-21T02:41:52;97077.00;;;3.83;100.00
19023;BME280;35226;48.606;8.858;2024-02-21T02:44:18;97063.38;;;3.86;100.00
19023;BME280;35226;48.606;8.858;2024-02-21T02:46:43;97062.94;;;3.77;100.00
19023;BME280;35226;48.606;8.858;2024-02-21T02:49:09;97062.88;;;3.70;100.00
19023;BME280;35226;48.606;8.858;2024-02-21T02:51:34;97060.94;;;3.74;100.00
19023;BME280;35226;48.606;8.858;2024-02-21T02:54:00;97057.84;;;3.76;100.00
19023;BME280;35226;48.606;8.858;2024-02-21T02:56:25;97054.50;;;4.00;100.00
19023;BME280;35226;48.606;8.858;2024-02-21T02:58:51;97055.94;;;3.83;100.00
19023;BME280;35226;48.606;8.858;2024-02-21T03:01:16;97045.38;;;3.78;100.00
19023;BME280;35226;48.606;8.858;2024-02-21T03:03:41;97049.38;;;3.91;100.00
19023;BME280;35226;48.606;8.858;2024-02-21T03:06:07;97046.97;;;3.86;100.00
19023;BME280;35226;48.606;8.858;2024-02-21T03:08:32;97044.69;;;3.95;100.00
19023;BME280;35226;48.606;8.858;2024-02-21T03:10:59;97036.13;;;4.04;100.00
19023;BME280;35226;48.606;8.858;2024-02-21T03:13:25;97034.59;;;4.06;100.00
19023;BME280;35226;48.606;8.858;2024-02-21T03:15:51;97020.47;;;3.94;100.00
19023;BME280;35226;48.606;8.858;2024-02-21T03:18:16;97026.00;;;4.01;100.00
19023;BME280;35226;48.606;8.858;2024-02-21T03:20:42;97023.63;;;3.99;100.00
19023;BME280;35226;48.606;8.858;2024-02-21T03:23:07;97025.19;;;4.00;100.00
19023;BME280;35226;48.606;8.858;2024-02-21T03:25:32;97014.25;;;4.04;100.00
19023;BME280;35226;48.606;8.858;2024-02-21T03:27:58;97011.19;;;4.09;100.00
19023;BME280;35226;48.606;8.858;2024-02-21T03:30:23;97010.38;;;4.01;100.00
19023;BME280;35226;48.606;8.858;2024-02-21T03:32:48;97009.19;;;4.06;100.00
19023;BME280;35226;48.606;8.858;2024-02-21T03:35:14;97001.03;;;4.09;100.00
19023;BME280;35226;48.606;8.858;2024-02-21T03:37:39;97013.94;;;4.16;100.00
19023;BME280;35226;48.606;8.858;2024-02-21T03:40:11;97002.59;;;4.14;100.00
19023;BME280;35226;48.606;8.858;2024-02-21T03:42:37;96995.16;;;4.07;100.00
19023;BME280;35226;48.606;8.858;2024-02-21T03:45:03;96997.91;;;4.11;100.00
19023;BME280;35226;48.606;8.858;2024-02-21T03:47:29;96995.97;;;4.15;100.00
19023;BME280;35226;48.606;8.858;2024-02-21T03:49:54;96993.69;;;4.28;100.00
19023;BME280;35226;48.606;8.858;2024-02-21T03:52:20;96999.13;;;4.21;100.00
19023;BME280;35226;48.606;8.858;2024-02-21T03:54:45;96990.56;;;4.29;100.00
19023;BME280;35226;48.606;8.858;2024-02-21T03:57:11;96983.91;;;4.27;100.00
19023;BME280;35226;48.606;8.858;2024-02-21T03:59:36;96976.50;;;4.31;100.00
19023;BME280;35226;48.606;8.858;2024-02-21T04:02:04;96969.44;;;4.26;100.00
19023;BME280;35226;48.606;8.858;2024-02-21T04:04:34;96976.88;;;4.33;100.00
19023;BME280;35226;48.606;8.858;2024-02-21T04:06:59;96975.31;;;4.28;100.00
19023;BME280;35226;48.606;8.858;2024-02-21T04:09:25;96977.63;;;4.19;100.00
19023;BME280;35226;48.606;8.858;2024-02-21T04:11:50;96981.09;;;4.13;100.00
19023;BME280;35226;48.606;8.858;2024-02-21T04:14:15;96976.38;;;4.02;100.00
19023;BME280;35226;48.606;8.858;2024-02-21T04:16:41;96965.44;;;3.99;100.00
19023;BME280;35226;48.606;8.858;2024-02-21T04:19:07;96970.50;;;3.97;100.00
19023;BME280;35226;48.606;8.858;2024-02-21T04:21:32;96972.03;;;3.94;100.00
19023;BME280;35226;48.606;8.858;2024-02-21T04:23:57;96965.47;;;4.06;100.00
19023;BME280;35226;48.606;8.858;2024-02-21T04:26:23;96971.28;;;3.97;100.00
19023;BME280;35226;48.606;8.858;2024-02-21T04:28:49;96965.31;;;3.78;100.00
19023;BME280;35226;48.606;8.858;2024-02-21T04:31:14;96959.88;;;3.81;100.00
19023;BME280;35226;48.606;8.858;2024-02-21T04:33:40;96964.16;;;3.79;100.00
19023;BME280;35226;48.606;8.858;2024-02-21T04:36:05;96964.06;;;3.64;100.00
19023;BME280;35226;48.606;8.858;2024-02-21T04:38:31;96956.72;;;3.76;100.00
19023;BME280;35226;48.606;8.858;2024-02-21T04:40:56;96957.03;;;3.63;100.00
19023;BME280;35226;48.606;8.858;2024-02-21T04:43:24;96955.19;;;3.78;100.00
19023;BME280;35226;48.606;8.858;2024-02-21T04:45:50;96955.59;;;3.84;100.00
19023;BME280;35226;48.606;8.858;2024-02-21T04:48:16;96952.06;;;3.83;100.00
19023;BME280;35226;48.606;8.858;2024-02-21T04:50:41;96955.16;;;3.75;100.00
19023;BME280;35226;48.606;8.858;2024-02-21T04:53:07;96951.63;;;3.70;100.00
19023;BME280;35226;48.606;8.858;2024-02-21T04:55:33;96947.78;;;3.86;100.00
19023;BME280;35226;48.606;8.858;2024-02-21T04:57:58;96948.53;;;3.72;100.00
19023;BME280;35226;48.606;8.858;2024-02-21T05:00:24;96959.47;;;3.79;100.00
19023;BME280;35226;48.606;8.858;2024-02-21T05:02:49;96948.06;;;3.63;100.00
19023;BME280;35226;48.606;8.858;2024-02-21T05:05:14;96948.81;;;3.56;100.00
19023;BME280;35226;48.606;8.858;2024-02-21T05:07:42;96955.94;;;3.71;100.00
19023;BME280;35226;48.606;8.858;2024-02-21T05:10:07;96959.03;;;3.70;100.00
19023;BME280;35226;48.606;8.858;2024-02-21T05:12:33;96966.84;;;3.68;100.00
19023;BME280;35226;48.606;8.858;2024-02-21T05:14:59;96954.31;;;3.63;100.00
19023;BME280;35226;48.606;8.858;2024-02-21T05:17:24;96948.84;;;3.60;100.00
19023;BME280;35226;48.606;8.858;2024-02-21T05:19:50;96937.09;;;3.52;100.00
19023;BME280;35226;48.606;8.858;2024-02-21T05:22:15;96937.84;;;3.53;100.00
19023;BME280;35226;48.606;8.858;2024-02-21T05:24:41;96930.06;;;3.55;100.00
19023;BME280;35226;48.606;8.858;2024-02-21T05:27:06;96931.22;;;3.50;100.00
19023;BME280;35226;48.606;8.858;2024-02-21T05:29:33;96926.53;;;3.51;100.00
19023;BME280;35226;48.606;8.858;2024-02-21T05:31:58;96919.06;;;3.44;100.00
19023;BME280;35226;48.606;8.858;2024-02-21T05:34:24;96911.28;;;3.43;100.00
19023;BME280;35226;48.606;8.858;2024-02-21T05:36:51;96901.41;;;3.20;100.00
19023;BME280;35226;48.606;8.858;2024-02-21T05:39:17;96900.94;;;3.15;100.00
19023;BME280;35226;48.606;8.858;2024-02-21T05:41:43;96901.09;;;3.32;100.00
19023;BME280;35226;48.606;8.858;2024-02-21T05:44:08;96897.56;;;3.32;100.00
19023;BME280;35226;48.606;8.858;2024-02-21T05:46:34;96894.06;;;3.35;100.00
19023;BME280;35226;48.606;8.858;2024-02-21T05:49:00;96897.16;;;3.33;100.00
19023;BME280;35226;48.606;8.858;2024-02-21T05:51:26;96898.66;;;3.24;100.00
19023;BME280;35226;48.606;8.858;2024-02-21T05:53:51;96898.72;;;3.31;100.00
19023;BME280;35226;48.606;8.858;2024-02-21T05:56:17;96895.91;;;3.13;100.00
19023;BME280;35226;48.606;8.858;2024-02-21T05:58:45;96905.22;;;3.09;100.00
19023;BME280;35226;48.606;8.858;2024-02-21T06:01:11;96899.75;;;3.09;100.00
19023;BME280;35226;48.606;8.858;2024-02-21T06:03:36;96893.88;;;3.03;100.00
19023;BME280;35226;48.606;8.858;2024-02-21T06:06:02;96896.53;;;2.92;100.00
19023;BME280;35226;48.606;8.858;2024-02-21T06:08:28;96889.78;;;2.79;100.00
19023;BME280;35226;48.606;8.858;2024-02-21T06:10:53;96887.47;;;2.85;100.00
19023;BME280;35226;48.606;8.858;2024-02-21T06:13:26;96882.88;;;2.96;100.00
19023;BME280;35226;48.606;8.858;2024-02-21T06:15:52;96882.19;;;3.03;100.00
19023;BME280;35226;48.606;8.858;2024-02-21T06:18:18;96880.97;;;3.00;100.00
19023;BME280;35226;48.606;8.858;2024-02-21T06:20:44;96886.41;;;2.96;100.00
19023;BME280;35226;48.606;8.858;2024-02-21T06:23:11;96889.16;;;3.00;100.00
19023;BME280;35226;48.606;8.858;2024-02-21T06:25:37;96896.59;;;3.03;100.00
19023;BME280;35226;48.606;8.858;2024-02-21T06:28:03;96889.22;;;3.07;100.00
19023;BME280;35226;48.606;8.858;2024-02-21T06:30:29;96891.84;;;2.96;100.00
19023;BME280;35226;48.606;8.858;2024-02-21T06:32:54;96894.16;;;2.91;100.00
19023;BME280;35226;48.606;8.858;2024-02-21T06:35:24;96890.28;;;2.92;100.00
19023;BME280;35226;48.606;8.858;2024-02-21T06:37:50;96891.00;;;2.85;100.00
19023;BME280;35226;48.606;8.858;2024-02-21T06:40:17;96895.34;;;2.90;100.00
19023;BME280;35226;48.606;8.858;2024-02-21T06:42:43;96889.53;;;2.98;100.00
19023;BME280;35226;48.606;8.858;2024-02-21T06:45:08;96890.28;;;2.92;100.00
19023;BME280;35226;48.606;8.858;2024-02-21T06:47:34;96900.47;;;2.98;100.00
19023;BME280;35226;48.606;8.858;2024-02-21T06:49:59;96880.56;;;2.98;100.00
19023;BME280;35226;48.606;8.858;2024-02-21T06:52:25;96886.06;;;3.05;100.00
19023;BME280;35226;48.606;8.858;2024-02-21T06:54:50;96881.03;;;3.07;100.00
19023;BME280;35226;48.606;8.858;2024-02-21T06:57:16;96881.13;;;3.21;100.00
19023;BME280;35226;48.606;8.858;2024-02-21T06:59:42;96878.78;;;3.20;100.00
19023;BME280;35226;48.606;8.858;2024-02-21T07:02:07;96877.88;;;3.05;100.00
19023;BME280;35226;48.606;8.858;2024-02-21T07:04:33;96878.28;;;3.07;100.00
19023;BME280;35226;48.606;8.858;2024-02-21T07:06:59;96869.81;;;3.26;100.00
19023;BME280;35226;48.606;8.858;2024-02-21T07:09:24;96875.31;;;3.33;100.00
19023;BME280;35226;48.606;8.858;2024-02-21T07:11:50;96871.81;;;3.29;100.00
19023;BME280;35226;48.606;8.858;2024-02-21T07:14:15;96874.06;;;3.17;100.00
19023;BME280;35226;48.606;8.858;2024-02-21T07:16:41;96879.16;;;3.18;100.00
19023;BME280;35226;48.606;8.858;2024-02-21T07:19:06;96876.84;;;3.27;100.00
19023;BME280;35226;48.606;8.858;2024-02-21T07:21:32;96883.13;;;3.31;100.00
19023;BME280;35226;48.606;8.858;2024-02-21T07:23:57;96878.06;;;3.37;100.00
19023;BME280;35226;48.606;8.858;2024-02-21T07:26:23;96873.00;;;3.32;100.00
19023;BME280;35226;48.606;8.858;2024-02-21T07:28:48;96868.34;;;3.43;100.00
19023;BME280;35226;48.606;8.858;2024-02-21T07:31:13;96860.59;;;3.52;100.00
19023;BME280;35226;48.606;8.858;2024-02-21T07:33:39;96855.53;;;3.54;100.00
19023;BME280;35226;48.606;8.858;2024-02-21T07:36:10;96853.63;;;3.65;100.00
19023;BME280;35226;48.606;8.858;2024-02-21T07:38:36;96850.53;;;3.70;100.00
19023;BME280;35226;48.606;8.858;2024-02-21T07:41:02;96844.69;;;3.79;100.00
19023;BME280;35226;48.606;8.858;2024-02-21T07:43:29;96843.94;;;3.89;100.00
19023;BME280;35226;48.606;8.858;2024-02-21T07:45:55;96831.06;;;3.86;100.00
19023;BME280;35226;48.606;8.858;2024-02-21T07:48:21;96827.97;;;4.05;100.00
19023;BME280;35226;48.606;8.858;2024-02-21T07:50:50;96827.22;;;4.16;100.00
19023;BME280;35226;48.606;8.858;2024-02-21T07:53:16;96822.13;;;4.11;100.00
19023;BME280;35226;48.606;8.858;2024-02-21T07:55:41;96817.44;;;4.18;100.00
19023;BME280;35226;48.606;8.858;2024-02-21T07:58:07;96814.72;;;4.25;100.00
19023;BME280;35226;48.606;8.858;2024-02-21T08:00:32;96822.53;;;4.37;100.00
19023;BME280;35226;48.606;8.858;2024-02-21T08:02:58;96820.59;;;4.34;100.00
19023;BME280;35226;48.606;8.858;2024-02-21T08:05:23;96823.72;;;4.43;100.00
19023;BME280;35226;48.606;8.858;2024-02-21T08:07:49;96812.75;;;4.61;100.00
19023;BME280;35226;48.606;8.858;2024-02-21T08:10:15;96819.44;;;4.60;100.00
19023;BME280;35226;48.606;8.858;2024-02-21T08:12:40;96822.16;;;4.60;100.00
19023;BME280;35226;48.606;8.858;2024-02-21T08:15:06;96815.50;;;4.61;100.00
19023;BME280;35226;48.606;8.858;2024-02-21T08:17:36;96815.50;;;4.75;100.00
19023;BME280;35226;48.606;8.858;2024-02-21T08:20:03;96817.84;;;4.88;100.00
19023;BME280;35226;48.606;8.858;2024-02-21T08:22:29;96815.91;;;4.77;100.00
19023;BME280;35226;48.606;8.858;2024-02-21T08:24:55;96817.44;;;4.93;100.00
19023;BME280;35226;48.606;8.858;2024-02-21T08:27:20;96820.94;;;5.00;100.00
19023;BME280;35226;48.606;8.858;2024-02-21T08:29:46;96804.91;;;5.02;100.00
19023;BME280;35226;48.606;8.858;2024-02-21T08:32:11;96799.03;;;5.07;100.00
19023;BME280;35226;48.606;8.858;2024-02-21T08:34:36;96798.56;;;5.19;100.00
19023;BME280;35226;48.606;8.858;2024-02-21T08:37:02;96798.22;;;5.17;100.00
19023;BME280;35226;48.606;8.858;2024-02-21T08:39:27;96789.97;;;5.25;100.00
19023;BME280;35226;48.606;8.858;2024-02-21T08:41:55;96779.81;;;5.18;100.00
19023;BME280;35226;48.606;8.858;2024-02-21T08:44:25;96782.09;;;5.34;100.00
19023;BME280;35226;48.606;8.858;2024-02-21T08:46:53;96788.75;;;5.36;100.00
19023;BME280;35226;48.606;8.858;2024-02-21T08:49:18;96783.59;;;5.52;100.00
19023;BME280;35226;48.606;8.858;2024-02-21T08:51:44;96782.41;;;5.57;100.00
19023;BME280;35226;48.606;8.858;2024-02-21T08:54:09;96780.38;;;5.72;100.00
19023;BME280;35226;48.606;8.858;2024-02-21T08:56:35;96769.00;;;5.77;100.00
19023;BME280;35226;48.606;8.858;2024-02-21T08:59:01;96759.22;;;5.72;100.00
19023;BME280;35226;48.606;8.858;2024-02-21T09:01:27;96761.13;;;5.79;100.00
19023;BME280;35226;48.606;8.858;2024-02-21T09:03:52;96754.84;;;5.82;100.00
19023;BME280;35226;48.606;8.858;2024-02-21T09:06:19;96763.09;;;5.82;100.00
19023;BME280;35226;48.606;8.858;2024-02-21T09:08:45;96750.16;;;5.86;100.00
19023;BME280;35226;48.606;8.858;2024-02-21T09:11:11;96743.09;;;5.85;100.00
19023;BME280;35226;48.606;8.858;2024-02-21T09:13:37;96744.97;;;5.99;100.00
19023;BME280;35226;48.606;8.858;2024-02-21T09:16:02;96736.72;;;6.06;100.00
19023;BME280;35226;48.606;8.858;2024-02-21T09:18:28;96743.31;;;6.15;100.00
19023;BME280;35226;48.606;8.858;2024-02-21T09:20:54;96730.81;;;6.07;100.00
19023;BME280;35226;48.606;8.858;2024-02-21T09:23:20;96728.50;;;6.06;100.00
19023;BME280;35226;48.606;8.858;2024-02-21T09:25:45;96736.63;;;6.16;100.00
19023;BME280;35226;48.606;8.858;2024-02-21T09:28:11;96734.94;;;6.29;100.00
19023;BME280;35226;48.606;8.858;2024-02-21T09:30:38;96735.25;;;6.42;100.00
19023;BME280;35226;48.606;8.858;2024-02-21T09:33:04;96734.53;;;6.35;100.00
19023;BME280;35226;48.606;8.858;2024-02-21T09:35:30;96737.84;;;6.56;100.00
19023;BME280;35226;48.606;8.858;2024-02-21T09:37:56;96735.72;;;6.75;100.00
19023;BME280;35226;48.606;8.858;2024-02-21T09:40:21;96732.13;;;6.81;100.00
19023;BME280;35226;48.606;8.858;2024-02-21T09:42:48;96719.44;;;6.94;100.00
19023;BME280;35226;48.606;8.858;2024-02-21T09:45:26;96725.66;;;6.98;100.00
19023;BME280;35226;48.606;8.858;2024-02-21T09:50:54;96718.28;;;7.26;100.00
19023;BME280;35226;48.606;8.858;2024-02-21T09:53:22;96712.09;;;7.49;100.00
19023;BME280;35226;48.606;8.858;2024-02-21T09:55:50;96710.00;;;7.60;100.00
19023;BME280;35226;48.606;8.858;2024-02-21T09:58:16;96699.63;;;7.71;100.00
19023;BME280;35226;48.606;8.858;2024-02-21T10:00:41;96703.97;;;7.68;100.00
19023;BME280;35226;48.606;8.858;2024-02-21T10:03:07;96699.47;;;7.82;100.00
19023;BME280;35226;48.606;8.858;2024-02-21T10:05:37;96695.72;;;7.95;100.00
19023;BME280;35226;48.606;8.858;2024-02-21T10:08:06;96692.88;;;8.02;100.00
19023;BME280;35226;48.606;8.858;2024-02-21T10:10:52;96689.97;;;8.36;100.00
19023;BME280;35226;48.606;8.858;2024-02-21T10:13:31;96686.16;;;8.27;100.00
19023;BME280;35226;48.606;8.858;2024-02-21T10:16:08;96676.94;;;8.40;100.00
19023;BME280;35226;48.606;8.858;2024-02-21T10:18:34;96672.00;;;8.28;100.00
19023;BME280;35226;48.606;8.858;2024-02-21T10:21:02;96667.72;;;8.24;100.00
19023;BME280;35226;48.606;8.858;2024-02-21T10:23:27;96669.09;;;8.39;100.00
19023;BME280;35226;48.606;8.858;2024-02-21T10:25:53;96673.44;;;8.60;100.00
19023;BME280;35226;48.606;8.858;2024-02-21T10:28:18;96674.44;;;8.69;100.00
19023;BME280;35226;48.606;8.858;2024-02-21T10:30:52;96669.56;;;8.77;100.00
19023;BME280;35226;48.606;8.858;2024-02-21T10:33:17;96658.19;;;8.95;100.00
19023;BME280;35226;48.606;8.858;2024-02-21T10:35:47;96657.28;;;8.81;100.00
19023;BME280;35226;48.606;8.858;2024-02-21T10:38:12;96655.25;;;8.85;100.00
19023;BME280;35226;48.606;8.858;2024-02-21T10:40:38;96648.47;;;8.90;100.00
19023;BME280;35226;48.606;8.858;2024-02-21T10:43:04;96644.63;;;8.84;100.00
19023;BME280;35226;48.606;8.858;2024-02-21T10:45:34;96636.00;;;9.02;100.00
19023;BME280;35226;48.606;8.858;2024-02-21T10:48:12;96636.72;;;9.06;100.00
19023;BME280;35226;48.606;8.858;2024-02-21T10:51:17;96622.75;;;9.33;100.00
19023;BME280;35226;48.606;8.858;2024-02-21T10:53:47;96623.47;;;9.37;100.00
19023;BME280;35226;48.606;8.858;2024-02-21T10:56:26;96618.03;;;9.33;100.00
19023;BME280;35226;48.606;8.858;2024-02-21T10:58:52;96610.38;;;9.41;100.00
19023;BME280;35226;48.606;8.858;2024-02-21T11:01:18;96608.66;;;9.47;100.00
19023;BME280;35226;48.606;8.858;2024-02-21T11:03:45;96610.91;;;9.52;100.00
19023;BME280;35226;48.606;8.858;2024-02-21T11:06:13;96605.38;;;9.52;100.00
19023;BME280;35226;48.606;8.858;2024-02-21T11:08:40;96598.00;;;9.65;100.00
19023;BME280;35226;48.606;8.858;2024-02-21T11:11:05;96593.78;;;9.77;100.00
19023;BME280;35226;48.606;8.858;2024-02-21T11:13:32;96583.50;;;9.93;100.00
19023;BME280;35226;48.606;8.858;2024-02-21T11:16:11;96578.06;;;9.90;100.00
19023;BME280;35226;48.606;8.858;2024-02-21T11:18:37;96571.53;;;9.84;100.00
19023;BME280;35226;48.606;8.858;2024-02-21T11:21:03;96565.94;;;9.87;100.00
19023;BME280;35226;48.606;8.858;2024-02-21T11:23:32;96554.47;;;9.73;100.00
19023;BME280;35226;48.606;8.858;2024-02-21T11:26:07;96562.53;;;10.12;100.00
19023;BME280;35226;48.606;8.858;2024-02-21T11:28:33;96555.94;;;9.77;100.00
19023;BME280;35226;48.606;8.858;2024-02-21T11:31:11;96557.16;;;9.76;100.00
19023;BME280;35226;48.606;8.858;2024-02-21T11:33:41;96560.19;;;10.11;100.00
19023;BME280;35226;48.606;8.858;2024-02-21T11:36:10;96543.13;;;10.16;100.00
19023;BME280;35226;48.606;8.858;2024-02-21T11:38:36;96530.56;;;9.98;100.00
19023;BME280;35226;48.606;8.858;2024-02-21T11:41:02;96536.25;;;10.08;100.00
19023;BME280;35226;48.606;8.858;2024-02-21T11:43:28;96534.09;;;10.44;100.00
19023;BME280;35226;48.606;8.858;2024-02-21T11:46:02;96523.09;;;10.57;100.00
19023;BME280;35226;48.606;8.858;2024-02-21T11:48:31;96518.28;;;10.73;100.00
19023;BME280;35226;48.606;8.858;2024-02-21T11:50:57;96517.94;;;10.71;100.00
19023;BME280;35226;48.606;8.858;2024-02-21T11:53:22;96510.53;;;10.81;100.00
19023;BME280;35226;48.606;8.858;2024-02-21T11:55:49;96507.03;;;10.93;100.00
19023;BME280;35226;48.606;8.858;2024-02-21T11:58:15;96502.28;;;10.94;100.00
19023;BME280;35226;48.606;8.858;2024-02-21T12:00:41;96496.97;;;10.99;100.00
19023;BME280;35226;48.606;8.858;2024-02-21T12:03:07;96495.75;;;11.00;100.00
19023;BME280;35226;48.606;8.858;2024-02-21T12:05:32;96482.81;;;11.23;100.00
19023;BME280;35226;48.606;8.858;2024-02-21T12:07:58;96475.41;;;11.20;100.00
19023;BME280;35226;48.606;8.858;2024-02-21T12:10:25;96468.53;;;11.37;100.00
19023;BME280;35226;48.606;8.858;2024-02-21T12:12:52;96463.22;;;11.42;100.00
19023;BME280;35226;48.606;8.858;2024-02-21T12:15:18;96453.03;;;11.39;100.00
19023;BME280;35226;48.606;8.858;2024-02-21T12:17:44;96450.59;;;11.29;100.00
19023;BME280;35226;48.606;8.858;2024-02-21T12:20:10;96453.22;;;11.58;100.00
19023;BME280;35226;48.606;8.858;2024-02-21T12:22:48;96452.78;;;11.46;100.00
19023;BME280;35226;48.606;8.858;2024-02-21T12:25:18;96444.56;;;11.68;100.00
19023;BME280;35226;48.606;8.858;2024-02-21T12:27:45;96432.41;;;12.00;100.00
19023;BME280;35226;48.606;8.858;2024-02-21T12:30:11;96426.28;;;11.83;84.00
19023;BME280;35226;48.606;8.858;2024-02-21T12:32:37;96425.28;;;12.12;88.03
19023;BME280;35226;48.606;8.858;2024-02-21T12:35:02;96420.94;;;11.89;79.57
19023;BME280;35226;48.606;8.858;2024-02-21T12:37:29;96415.09;;;12.09;86.86
19023;BME280;35226;48.606;8.858;2024-02-21T12:39:54;96404.06;;;11.96;95.95
19023;BME280;35226;48.606;8.858;2024-02-21T12:42:20;96403.22;;;11.86;99.03
19023;BME280;35226;48.606;8.858;2024-02-21T12:44:45;96398.47;;;11.87;98.62
19023;BME280;35226;48.606;8.858;2024-02-21T12:47:11;96400.78;;;11.89;99.40
19023;BME280;35226;48.606;8.858;2024-02-21T12:49:37;96403.19;;;11.99;100.00
19023;BME280;35226;48.606;8.858;2024-02-21T12:52:03;96392.03;;;11.90;95.07
19023;BME280;35226;48.606;8.858;2024-02-21T12:54:28;96383.13;;;11.95;92.15
19023;BME280;35226;48.606;8.858;2024-02-21T12:56:55;96377.69;;;11.82;82.06
19023;BME280;35226;48.606;8.858;2024-02-21T12:59:21;96379.22;;;12.05;78.37